Time;durP1;ratioP1;P1;durP2;ratioP2;P2;SDS_P1;SDS_P2;PMS_P1;PMS_P2;Temp;Humidity;BMP_temperature;BMP_pressure;BME280_temperature;BME280_humidity;BME280_pressure;Samples;Min_cycle;Max_cycle;Signal;HPM_P1;HPM_P2
2022/08/29 00:00:12;;;;;;;0.50;0.40;;;;;;;23.34;100.00;95391.00;5134669;27;20458;-62
2022/08/29 00:02:48;;;;;;;0.63;0.60;;;;;;;23.20;100.00;95396.03;5134665;27;20425;-62
2022/08/29 00:05:17;;;;;;;0.40;0.30;;;;;;;23.17;100.00;95380.50;5134597;27;20462;-63
2022/08/29 00:07:45;;;;;;;3.93;0.87;;;;;;;23.38;100.00;95386.47;5134571;27;20426;-62
2022/08/29 00:10:15;;;;;;;0.40;0.37;;;;;;;23.11;100.00;95341.34;5134601;27;20533;-63
2022/08/29 00:12:44;;;;;;;0.70;0.53;;;;;;;23.34;100.00;95380.16;5134643;27;20430;-63
2022/08/29 00:15:14;;;;;;;1.03;0.97;;;;;;;22.96;100.00;95352.91;5134367;27;20430;-64
2022/08/29 00:17:43;;;;;;;0.57;0.40;;;;;;;22.97;100.00;95376.13;5134212;27;20432;-64
2022/08/29 00:20:17;;;;;;;0.80;0.80;;;;;;;23.01;100.00;95377.78;5134741;27;20860;-64
2022/08/29 00:22:47;;;;;;;0.50;0.40;;;;;;;22.90;100.00;95365.88;5134166;27;20997;-64
2022/08/29 00:25:15;;;;;;;0.50;0.40;;;;;;;22.98;100.00;95372.25;5134379;27;20430;-63
2022/08/29 00:27:44;;;;;;;0.40;0.30;;;;;;;22.71;100.00;95317.91;5133528;27;21061;-63
2022/08/29 00:30:18;;;;;;;0.60;0.60;;;;;;;22.69;100.00;95374.19;5134409;27;20426;-63
2022/08/29 00:32:46;;;;;;;0.80;0.80;;;;;;;22.96;100.00;95379.94;5133887;27;20921;-63
2022/08/29 00:35:20;;;;;;;0.60;0.60;;;;;;;22.93;100.00;95372.53;5134348;27;20534;-63
2022/08/29 00:37:50;;;;;;;0.67;0.40;;;;;;;22.97;100.00;95381.53;5133903;27;20443;-64
2022/08/29 00:40:22;;;;;;;0.67;0.50;;;;;;;22.91;100.00;95377.50;5133590;27;20422;-64
2022/08/29 00:42:50;;;;;;;0.60;0.40;;;;;;;22.91;100.00;95388.31;5133139;27;20423;-64
2022/08/29 00:45:19;;;;;;;0.60;0.47;;;;;;;22.80;100.00;95376.41;5134287;27;20419;-64
2022/08/29 00:47:52;;;;;;;0.50;0.40;;;;;;;22.79;100.00;95380.25;5133477;27;20474;-64
2022/08/29 00:50:28;;;;;;;1.07;0.37;;;;;;;22.72;100.00;95380.84;5133653;27;20517;-64
2022/08/29 00:52:58;;;;;;;0.50;0.30;;;;;;;22.79;100.00;95386.44;5133795;27;20485;-64
2022/08/29 00:55:31;;;;;;;1.10;1.00;;;;;;;22.67;100.00;95383.78;5133963;27;20465;-64
2022/08/29 00:58:02;;;;;;;0.97;0.87;;;;;;;22.73;100.00;95388.63;5133850;27;20485;-64
2022/08/29 01:00:31;;;;;;;0.50;0.43;;;;;;;22.34;100.00;95305.66;5133255;27;20525;-64
2022/08/29 01:03:01;;;;;;;0.70;0.47;;;;;;;22.94;100.00;95388.41;5133204;27;20501;-64
2022/08/29 01:05:32;;;;;;;0.50;0.30;;;;;;;22.90;100.00;95384.81;5133372;27;20419;-64
2022/08/29 01:08:01;;;;;;;0.60;0.60;;;;;;;22.54;100.00;95380.31;5133313;27;20470;-64
2022/08/29 01:13:15;;;;;;;0.60;0.50;;;;;;;22.16;100.00;95355.69;5133022;27;20440;-64
2022/08/29 01:15:45;;;;;;;0.70;0.47;;;;;;;22.32;100.00;95378.13;5133071;27;20987;-66
2022/08/29 01:18:15;;;;;;;0.70;0.50;;;;;;;22.06;100.00;95345.38;5132818;27;20521;-65
2022/08/29 01:20:58;;;;;;;0.60;0.50;;;;;;;22.26;100.00;95378.72;5133251;27;20476;-65
2022/08/29 01:23:34;;;;;;;0.50;0.50;;;;;;;22.19;100.00;95373.88;5133063;27;20521;-65
2022/08/29 01:26:05;;;;;;;0.53;0.40;;;;;;;22.08;100.00;95368.19;5133006;27;20435;-65
2022/08/29 01:28:38;;;;;;;0.60;0.40;;;;;;;22.24;100.00;95376.34;5133149;27;20497;-65
2022/08/29 01:31:09;;;;;;;0.40;0.30;;;;;;;22.21;100.00;95366.25;5132606;27;20510;-66
2022/08/29 01:33:50;;;;;;;0.90;0.40;;;;;;;22.15;100.00;95356.81;5132320;27;20466;-66
2022/08/29 01:36:22;;;;;;;0.60;0.30;;;;;;;22.13;100.00;95359.06;5132681;27;20419;-66
2022/08/29 01:38:51;;;;;;;0.60;0.40;;;;;;;22.10;100.00;95365.94;5132611;27;20435;-66
2022/08/29 01:41:21;;;;;;;0.50;0.40;;;;;;;21.86;100.00;95365.16;5133106;27;20505;-66
2022/08/29 01:43:58;;;;;;;0.50;0.50;;;;;;;21.61;100.00;95331.22;5132760;27;20470;-66
2022/08/29 01:46:33;;;;;;;0.47;0.30;;;;;;;21.82;100.00;95377.75;5132446;27;20536;-66
2022/08/29 01:49:03;;;;;;;0.63;0.60;;;;;;;21.71;100.00;95369.31;5132525;27;20837;-67
2022/08/29 01:51:32;;;;;;;0.60;0.50;;;;;;;21.51;100.00;95359.41;5132476;27;20510;-63
2022/08/29 01:54:00;;;;;;;0.50;0.37;;;;;;;21.47;100.00;95370.13;5132720;27;20849;-67
2022/08/29 01:56:32;;;;;;;1.30;1.23;;;;;;;21.58;100.00;95372.38;5132240;27;20945;-68
2022/08/29 01:59:04;;;;;;;0.50;0.40;;;;;;;21.57;100.00;95370.78;5131958;27;20514;-68
2022/08/29 02:01:35;;;;;;;0.50;0.50;;;;;;;21.60;100.00;95364.72;5132244;28;20415;-66
2022/08/29 02:04:04;;;;;;;1.00;1.00;;;;;;;21.61;100.00;95368.97;5132478;28;20438;-68
2022/08/29 02:06:33;;;;;;;0.60;0.60;;;;;;;21.59;100.00;95355.84;5132744;28;20827;-67
2022/08/29 02:09:02;;;;;;;2.40;0.40;;;;;;;21.23;100.00;95316.16;5132587;28;20415;-68
2022/08/29 02:11:34;;;;;;;0.60;0.40;;;;;;;21.59;100.00;95360.44;5132214;27;20434;-68
2022/08/29 02:14:03;;;;;;;0.53;0.40;;;;;;;21.42;100.00;95361.44;5132492;28;20792;-68
2022/08/29 02:16:32;;;;;;;0.40;0.33;;;;;;;21.34;100.00;95338.06;5132716;28;20521;-64
2022/08/29 02:19:01;;;;;;;1.10;0.77;;;;;;;21.72;100.00;95367.41;5132885;28;20437;-69
2022/08/29 02:21:30;;;;;;;0.40;0.30;;;;;;;21.70;100.00;95361.56;5132310;28;20919;-68
2022/08/29 02:24:02;;;;;;;0.40;0.30;;;;;;;21.84;100.00;95353.91;5132858;27;20453;-69
2022/08/29 02:26:54;;;;;;;0.40;0.30;;;;;;;21.81;100.00;95357.25;5132232;27;20476;-69
2022/08/29 02:29:22;;;;;;;0.50;0.40;;;;;;;21.78;100.00;95361.44;5132620;28;20505;-70
2022/08/29 02:31:51;;;;;;;0.60;0.30;;;;;;;21.84;100.00;95356.59;5132513;28;20435;-69
2022/08/29 02:34:22;;;;;;;0.50;0.40;;;;;;;21.79;100.00;95359.53;5132038;27;20497;-70
2022/08/29 02:36:50;;;;;;;2.93;2.83;;;;;;;21.06;100.00;95280.53;5131537;27;20926;-70
2022/08/29 02:39:19;;;;;;;0.50;0.30;;;;;;;21.60;100.00;95362.81;5132299;27;20854;-70
2022/08/29 02:41:47;;;;;;;0.70;0.70;;;;;;;21.50;100.00;95374.81;5131412;28;20477;-70
2022/08/29 02:44:19;;;;;;;0.70;0.63;;;;;;;21.35;100.00;95337.72;5132128;28;20446;-70
2022/08/29 02:46:48;;;;;;;0.77;0.77;;;;;;;21.64;100.00;95376.38;5132095;28;20478;-71
2022/08/29 02:49:17;;;;;;;0.97;0.50;;;;;;;21.81;100.00;95379.66;5132540;28;20422;-70
2022/08/29 02:51:46;;;;;;;0.50;0.30;;;;;;;21.84;100.00;95384.38;5132145;28;20458;-71
2022/08/29 02:54:14;;;;;;;0.60;0.50;;;;;;;21.56;100.00;95351.09;5131977;28;20449;-71
2022/08/29 02:56:43;;;;;;;0.50;0.30;;;;;;;21.81;100.00;95389.66;5132189;28;20470;-71
2022/08/29 02:59:12;;;;;;;1.17;0.40;;;;;;;21.69;100.00;95386.94;5131817;28;20426;-71
2022/08/29 03:01:42;;;;;;;0.40;0.30;;;;;;;21.05;100.00;95392.91;5132270;28;20812;-72
2022/08/29 03:04:11;;;;;;;0.47;0.33;;;;;;;20.92;100.00;95396.72;5132308;28;20483;-70
2022/08/29 03:06:39;;;;;;;2.00;1.03;;;;;;;21.10;100.00;95392.72;5131647;28;20458;-71
2022/08/29 03:09:07;;;;;;;0.47;0.40;;;;;;;21.13;100.00;95386.69;5132075;28;20545;-71
2022/08/29 03:11:36;;;;;;;4.97;1.40;;;;;;;21.27;100.00;95386.38;5134118;27;20431;-72
2022/08/29 03:14:04;;;;;;;0.73;0.40;;;;;;;21.17;100.00;95393.00;5135982;27;21007;-73
2022/08/29 03:16:33;;;;;;;0.50;0.30;;;;;;;21.26;100.00;95390.19;5135561;27;20430;-72
2022/08/29 03:19:03;;;;;;;0.40;0.30;;;;;;;21.11;100.00;95385.44;5135317;27;20475;-73
2022/08/29 03:21:32;;;;;;;0.60;0.40;;;;;;;21.14;100.00;95393.66;5135288;27;20510;-72
2022/08/29 03:24:00;;;;;;;0.50;0.40;;;;;;;21.29;100.00;95387.63;5135749;27;20482;-72
2022/08/29 03:26:29;;;;;;;0.63;0.60;;;;;;;21.37;100.00;95392.13;5135477;27;20451;-73
2022/08/29 03:28:57;;;;;;;0.50;0.30;;;;;;;21.47;100.00;95398.97;5135019;27;20505;-74
2022/08/29 03:31:26;;;;;;;0.70;0.60;;;;;;;21.47;100.00;95401.69;5135555;27;20430;-73
2022/08/29 03:33:55;;;;;;;0.77;0.77;;;;;;;21.12;100.00;95401.28;5135081;27;20477;-75
2022/08/29 03:36:26;;;;;;;0.60;0.60;;;;;;;20.70;100.00;95399.75;5135688;27;20462;-73
2022/08/29 03:38:55;;;;;;;1.10;0.47;;;;;;;20.31;100.00;95402.94;5135369;27;20526;-74
2022/08/29 03:41:26;;;;;;;0.50;0.40;;;;;;;20.64;100.00;95401.88;5135521;27;20509;-73
2022/08/29 03:43:56;;;;;;;0.90;0.47;;;;;;;20.92;100.00;95406.69;5135102;27;20430;-74
2022/08/29 03:46:25;;;;;;;1.10;1.10;;;;;;;21.02;100.00;95404.38;5135114;27;20462;-75
2022/08/29 03:48:53;;;;;;;0.50;0.50;;;;;;;20.40;100.00;95321.00;5135041;27;20515;-74
2022/08/29 03:51:23;;;;;;;0.90;0.57;;;;;;;21.06;100.00;95412.59;5134764;27;20450;-74
2022/08/29 03:53:58;;;;;;;0.50;0.50;;;;;;;20.98;100.00;95413.44;5134830;27;20436;-74
2022/08/29 03:56:27;;;;;;;2.07;0.60;;;;;;;21.07;100.00;95414.19;5135144;27;20430;-74
2022/08/29 03:58:57;;;;;;;0.60;0.47;;;;;;;21.03;100.00;95415.91;5134368;27;20521;-73
2022/08/29 04:01:28;;;;;;;1.00;0.50;;;;;;;20.96;100.00;95413.78;5133881;27;20495;-74
2022/08/29 04:03:57;;;;;;;0.70;0.70;;;;;;;20.95;100.00;95417.59;5133841;27;20806;-74
2022/08/29 04:06:28;;;;;;;0.50;0.47;;;;;;;20.91;100.00;95416.69;5134381;27;20454;-74
2022/08/29 04:08:58;;;;;;;0.67;0.67;;;;;;;20.71;100.00;95412.13;5133778;27;20553;-74
2022/08/29 04:11:27;;;;;;;0.50;0.50;;;;;;;20.53;100.00;95365.69;5134547;27;20450;-74
2022/08/29 04:13:56;;;;;;;0.77;0.50;;;;;;;20.85;100.00;95420.69;5134171;27;20430;-73
2022/08/29 04:16:28;;;;;;;0.50;0.37;;;;;;;20.97;100.00;95426.16;5134046;27;20802;-72
2022/08/29 04:18:58;;;;;;;0.53;0.30;;;;;;;21.21;100.00;95425.44;5133901;27;20489;-72
2022/08/29 04:21:27;;;;;;;0.87;0.60;;;;;;;21.23;100.00;95423.97;5133723;27;20507;-72
2022/08/29 04:23:57;;;;;;;0.50;0.30;;;;;;;21.19;100.00;95422.28;5133802;27;20462;-72
2022/08/29 04:26:25;;;;;;;0.40;0.30;;;;;;;21.09;100.00;95439.69;5133525;27;20979;-72
2022/08/29 04:29:11;;;;;;;0.60;0.40;;;;;;;21.06;100.00;95434.16;5134088;27;20466;-73
2022/08/29 04:31:41;;;;;;;1.63;0.70;;;;;;;21.16;100.00;95439.94;5133603;27;20422;-66
2022/08/29 04:34:11;;;;;;;0.80;0.80;;;;;;;21.31;100.00;95447.38;5133710;27;20820;-66
2022/08/29 04:36:44;;;;;;;0.50;0.50;;;;;;;21.14;100.00;95450.25;5133359;27;21146;-50
2022/08/29 04:39:14;;;;;;;1.33;0.57;;;;;;;20.89;100.00;95398.16;5133096;27;20487;-51
2022/08/29 04:41:43;;;;;;;0.50;0.33;;;;;;;21.21;100.00;95452.41;5133531;27;20955;-61
2022/08/29 04:44:12;;;;;;;1.00;0.90;;;;;;;21.42;100.00;95447.75;5133043;27;20998;-56
2022/08/29 04:46:41;;;;;;;0.50;0.30;;;;;;;21.43;100.00;95450.09;5133380;27;20495;-58
2022/08/29 04:49:10;;;;;;;0.50;0.40;;;;;;;21.61;100.00;95445.28;5133777;27;20497;-59
2022/08/29 04:51:39;;;;;;;0.80;0.47;;;;;;;21.24;100.00;95376.25;5133578;27;20931;-60
2022/08/29 04:54:07;;;;;;;0.60;0.60;;;;;;;21.61;100.00;95425.59;5133614;27;20492;-60
2022/08/29 04:56:37;;;;;;;0.97;0.87;;;;;;;21.39;100.00;95416.84;5133504;27;20448;-60
2022/08/29 04:59:15;;;;;;;0.60;0.43;;;;;;;21.74;100.00;95454.97;5133446;27;20431;-58
2022/08/29 05:01:43;;;;;;;0.70;0.40;;;;;;;21.61;100.00;95447.97;5133411;27;20419;-59
2022/08/29 05:04:12;;;;;;;0.97;0.97;;;;;;;21.44;100.00;95432.00;5133178;27;20426;-60
2022/08/29 05:06:42;;;;;;;1.77;1.37;;;;;;;21.47;100.00;95402.47;5133648;27;20521;-59
2022/08/29 05:09:11;;;;;;;0.90;0.90;;;;;;;21.32;100.00;95395.03;5132991;27;20470;-60
2022/08/29 05:11:41;;;;;;;0.57;0.53;;;;;;;21.67;100.00;95433.16;5132749;27;20475;-61
2022/08/29 05:14:10;;;;;;;0.90;0.90;;;;;;;21.70;100.00;95451.38;5132461;27;20887;-60
2022/08/29 05:16:39;;;;;;;1.00;1.00;;;;;;;21.87;100.00;95453.09;5132265;27;20464;-60
2022/08/29 05:19:13;;;;;;;0.63;0.53;;;;;;;21.93;100.00;95430.16;5132074;27;20433;-62
2022/08/29 05:21:43;;;;;;;0.90;0.90;;;;;;;21.77;100.00;95454.31;5130322;27;20422;-62
2022/08/29 05:24:13;;;;;;;1.20;1.10;;;;;;;21.45;100.00;95458.63;5131963;27;20475;-55
2022/08/29 05:26:45;;;;;;;3.70;1.40;;;;;;;21.50;100.00;95454.97;5132497;27;20431;-54
2022/08/29 05:29:14;;;;;;;0.90;0.90;;;;;;;21.72;100.00;95421.34;5131853;27;20549;-54
2022/08/29 05:31:42;;;;;;;1.03;1.03;;;;;;;21.27;100.00;95381.78;5130509;27;20466;-52
2022/08/29 05:34:12;;;;;;;0.60;0.60;;;;;;;21.84;100.00;95440.25;5129057;27;21041;-52
2022/08/29 05:37:01;;;;;;;0.63;0.63;;;;;;;21.85;100.00;95445.34;5129848;27;20832;-53
2022/08/29 05:39:30;;;;;;;0.50;0.40;;;;;;;21.66;100.00;95436.97;5130083;27;20424;-52
2022/08/29 05:42:00;;;;;;;0.60;0.60;;;;;;;21.87;100.00;95447.69;5130265;27;21135;-52
2022/08/29 05:44:31;;;;;;;1.40;1.30;;;;;;;21.55;100.00;95457.44;5131130;27;20450;-52
2022/08/29 05:47:03;;;;;;;3.17;1.43;;;;;;;21.27;100.00;95429.50;5132392;27;20426;-52
2022/08/29 05:49:32;;;;;;;0.70;0.70;;;;;;;21.48;100.00;95449.09;5132380;27;20505;-52
2022/08/29 05:52:00;;;;;;;2.40;1.80;;;;;;;21.20;100.00;95450.84;5132405;27;20886;-52
2022/08/29 05:54:33;;;;;;;1.90;1.80;;;;;;;21.39;100.00;95448.41;5132463;27;20418;-53
2022/08/29 05:57:03;;;;;;;1.63;1.53;;;;;;;22.29;100.00;95442.84;5132179;27;20446;-52
2022/08/29 05:59:31;;;;;;;1.73;1.63;;;;;;;22.54;100.00;95436.28;5132724;28;20501;-52
2022/08/29 06:02:00;;;;;;;1.17;1.07;;;;;;;22.54;100.00;95441.69;5132743;28;20423;-52
2022/08/29 06:04:28;;;;;;;0.90;0.70;;;;;;;23.23;100.00;95441.31;5132308;28;20423;-52
2022/08/29 06:06:57;;;;;;;0.70;0.50;;;;;;;23.23;100.00;95447.50;5132457;28;20914;-53
2022/08/29 06:09:25;;;;;;;0.60;0.40;;;;;;;23.63;100.00;95420.34;5132399;28;20580;-52
2022/08/29 06:11:56;;;;;;;1.43;1.43;;;;;;;23.26;100.00;95411.66;5132708;28;20458;-52
2022/08/29 06:14:27;;;;;;;1.20;0.70;;;;;;;23.37;100.00;95430.91;5132513;28;20503;-52
2022/08/29 06:16:56;;;;;;;1.00;0.83;;;;;;;23.49;100.00;95438.16;5132559;28;20523;-52
2022/08/29 06:19:25;;;;;;;5.90;1.30;;;;;;;23.49;100.00;95430.81;5132246;28;20419;-52
2022/08/29 06:21:55;;;;;;;2.23;1.13;;;;;;;23.43;100.00;95440.31;5132047;28;20437;-53
2022/08/29 06:24:23;;;;;;;0.83;0.83;;;;;;;24.10;100.00;95444.72;5132133;28;20518;-52
2022/08/29 06:26:52;;;;;;;1.33;1.23;;;;;;;24.41;100.00;95450.06;5132228;28;20435;-51
2022/08/29 06:29:20;;;;;;;0.70;0.70;;;;;;;24.42;100.00;95445.44;5131939;28;20552;-52
2022/08/29 06:31:50;;;;;;;4.30;1.07;;;;;;;24.64;100.00;95436.66;5132153;28;20469;-53
2022/08/29 06:34:19;;;;;;;1.10;1.10;;;;;;;25.27;100.00;95433.66;5132136;28;20470;-53
2022/08/29 06:36:47;;;;;;;1.27;1.17;;;;;;;25.64;100.00;95440.16;5132410;27;20958;-53
2022/08/29 06:39:16;;;;;;;0.73;0.70;;;;;;;25.86;100.00;95436.66;5132246;28;20450;-53
2022/08/29 06:41:44;;;;;;;0.60;0.60;;;;;;;26.18;100.00;95432.56;5131794;28;21018;-51
2022/08/29 06:44:13;;;;;;;0.63;0.60;;;;;;;27.03;95.29;95420.09;5132248;27;20529;-52
2022/08/29 06:46:43;;;;;;;2.10;2.00;;;;;;;27.25;90.70;95427.34;5135073;27;21028;-53
2022/08/29 06:49:15;;;;;;;1.50;1.17;;;;;;;27.25;92.22;95430.06;5136288;27;20473;-53
2022/08/29 06:51:47;;;;;;;1.07;0.73;;;;;;;27.52;91.39;95428.03;5135764;27;20430;-53
2022/08/29 06:54:18;;;;;;;0.80;0.70;;;;;;;27.22;85.69;95409.06;5135873;27;20509;-54
2022/08/29 06:56:47;;;;;;;1.40;1.30;;;;;;;27.47;81.39;95431.91;5135943;27;20458;-53
2022/08/29 06:59:16;;;;;;;0.93;0.50;;;;;;;27.58;83.76;95438.22;5135940;27;20847;-54
2022/08/29 07:01:45;;;;;;;1.13;1.00;;;;;;;27.88;77.42;95440.03;5135859;27;20454;-54
2022/08/29 07:04:15;;;;;;;1.63;0.90;;;;;;;27.81;80.60;95410.78;5135841;27;20416;-55
2022/08/29 07:06:48;;;;;;;0.73;0.73;;;;;;;28.42;74.04;95433.84;5135726;27;20462;-54
2022/08/29 07:09:17;;;;;;;1.37;1.27;;;;;;;28.58;76.92;95440.56;5135372;27;20433;-54
2022/08/29 07:11:45;;;;;;;0.77;0.73;;;;;;;28.53;70.03;95438.22;5135624;27;20518;-54
2022/08/29 07:14:14;;;;;;;0.57;0.57;;;;;;;28.60;72.11;95435.53;5135516;27;20511;-54
2022/08/29 07:16:43;;;;;;;0.70;0.67;;;;;;;28.05;80.61;95437.50;5135255;27;21015;-55
2022/08/29 07:19:11;;;;;;;0.40;0.40;;;;;;;28.23;82.02;95432.94;5135404;27;20969;-54
2022/08/29 07:21:44;;;;;;;0.97;0.90;;;;;;;28.58;75.16;95435.13;5135676;27;20452;-56
2022/08/29 07:24:12;;;;;;;0.63;0.57;;;;;;;28.35;83.31;95434.59;5135584;27;20429;-55
2022/08/29 07:26:43;;;;;;;6.17;1.67;;;;;;;28.26;75.57;95434.13;5135337;27;20482;-55
2022/08/29 07:29:13;;;;;;;1.00;0.97;;;;;;;28.20;73.98;95427.47;5135189;27;20440;-54
2022/08/29 07:31:42;;;;;;;1.43;1.33;;;;;;;28.04;79.20;95425.00;5135189;27;20423;-55
2022/08/29 07:34:11;;;;;;;1.53;1.43;;;;;;;28.07;79.31;95432.44;5135210;27;20900;-55
2022/08/29 07:36:40;;;;;;;1.10;1.07;;;;;;;28.00;80.04;95437.03;5135422;27;20441;-55
2022/08/29 07:39:12;;;;;;;0.87;0.87;;;;;;;27.54;81.85;95428.44;5135292;27;20457;-56
2022/08/29 07:41:41;;;;;;;1.30;1.20;;;;;;;28.11;83.02;95432.44;5135356;27;20494;-55
2022/08/29 07:44:10;;;;;;;1.33;1.23;;;;;;;28.12;79.33;95434.03;5135007;27;20432;-55
2022/08/29 07:46:39;;;;;;;1.10;1.00;;;;;;;27.79;80.95;95436.84;5134872;27;20465;-55
2022/08/29 07:49:08;;;;;;;0.70;0.60;;;;;;;28.76;83.13;95421.59;5135316;27;20451;-55
2022/08/29 07:51:36;;;;;;;4.20;2.43;;;;;;;28.55;76.96;95421.44;5134846;27;20567;-54
2022/08/29 07:54:15;;;;;;;0.60;0.60;;;;;;;28.51;78.07;95421.44;5134860;27;20918;-56
2022/08/29 07:56:44;;;;;;;0.87;0.70;;;;;;;29.17;71.35;95416.69;5133936;27;20806;-54
2022/08/29 07:59:13;;;;;;;1.00;0.50;;;;;;;29.82;68.42;95417.25;5134569;27;20470;-55
2022/08/29 08:01:42;;;;;;;1.57;1.13;;;;;;;29.52;67.53;95417.56;5134585;27;20515;-55
2022/08/29 08:04:11;;;;;;;0.43;0.40;;;;;;;30.22;65.52;95405.13;5135064;27;20436;-55
2022/08/29 08:06:41;;;;;;;2.20;1.53;;;;;;;30.03;65.45;95409.03;5134766;27;20436;-55
2022/08/29 08:09:14;;;;;;;1.90;1.80;;;;;;;29.53;65.75;95421.09;5134577;27;20462;-55
2022/08/29 08:11:43;;;;;;;1.40;0.83;;;;;;;29.48;65.42;95418.75;5134393;27;20467;-54
2022/08/29 08:14:12;;;;;;;1.00;1.00;;;;;;;30.23;64.11;95414.91;5134287;27;20462;-55
2022/08/29 08:16:41;;;;;;;0.70;0.70;;;;;;;31.12;62.43;95408.03;5134376;27;20443;-55
2022/08/29 08:19:12;;;;;;;2.10;1.07;;;;;;;30.04;59.67;95355.16;5134493;27;20444;-55
2022/08/29 08:21:42;;;;;;;4.93;1.17;;;;;;;30.91;58.08;95410.09;5134215;27;20513;-55
2022/08/29 08:24:18;;;;;;;0.63;0.60;;;;;;;31.08;58.31;95401.03;5134164;27;20834;-55
2022/08/29 08:26:47;;;;;;;1.43;1.23;;;;;;;30.67;58.96;95403.50;5134485;27;20428;-55
2022/08/29 08:29:16;;;;;;;0.77;0.77;;;;;;;31.77;57.67;95401.03;5134656;27;20560;-54
2022/08/29 08:31:45;;;;;;;1.80;1.70;;;;;;;32.42;52.84;95400.09;5134157;27;20496;-54
2022/08/29 08:34:14;;;;;;;0.93;0.80;;;;;;;32.57;54.09;95391.34;5133970;27;20474;-54
2022/08/29 08:36:44;;;;;;;1.87;1.77;;;;;;;33.07;48.81;95401.75;5133885;27;20822;-54
2022/08/29 08:39:14;;;;;;;1.50;1.40;;;;;;;32.79;47.33;95396.59;5133998;27;20445;-54
2022/08/29 08:41:54;;;;;;;1.43;0.80;;;;;;;33.59;44.72;95392.03;5134223;27;20426;-55
2022/08/29 08:44:50;;;;;;;1.50;1.40;;;;;;;33.77;45.58;95389.81;5133878;27;20555;-55
2022/08/29 08:47:24;;;;;;;1.90;1.80;;;;;;;33.38;45.64;95386.03;5133326;27;20520;-54
2022/08/29 08:49:58;;;;;;;2.40;1.07;;;;;;;33.27;45.52;95383.44;5133770;27;20433;-54
2022/08/29 08:52:34;;;;;;;2.00;1.90;;;;;;;32.30;50.58;95392.38;5133898;27;20507;-54
2022/08/29 08:55:09;;;;;;;0.70;0.70;;;;;;;32.70;51.25;95393.53;5133656;27;20496;-56
2022/08/29 08:57:44;;;;;;;1.10;0.77;;;;;;;34.30;46.38;95377.16;5133894;27;20874;-54
2022/08/29 09:00:13;;;;;;;1.63;1.00;;;;;;;34.32;44.60;95370.03;5133508;27;20529;-54
2022/08/29 09:02:55;;;;;;;3.47;1.00;;;;;;;33.47;45.80;95383.56;5133424;27;20900;-55
2022/08/29 09:05:42;;;;;;;7.40;1.20;;;;;;;33.90;46.42;95365.25;5133360;27;20513;-55
2022/08/29 09:08:24;;;;;;;1.23;1.13;;;;;;;34.16;43.63;95366.38;5132915;27;20423;-56
2022/08/29 09:11:00;;;;;;;1.00;0.97;;;;;;;35.17;42.23;95362.13;5132941;27;20472;-54
2022/08/29 09:13:42;;;;;;;0.80;0.80;;;;;;;35.11;42.19;95358.31;5132754;27;20450;-55
2022/08/29 09:16:22;;;;;;;0.70;0.70;;;;;;;35.53;40.91;95357.38;5133182;27;20952;-55
2022/08/29 09:19:03;;;;;;;1.30;0.97;;;;;;;35.87;38.44;95354.22;5133113;27;20491;-58
2022/08/29 09:21:37;;;;;;;0.50;0.40;;;;;;;36.54;36.10;95350.53;5133065;27;20477;-56
2022/08/29 09:24:15;;;;;;;0.70;0.57;;;;;;;36.63;36.67;95349.91;5132925;27;20488;-55
2022/08/29 09:26:44;;;;;;;0.63;0.60;;;;;;;36.66;36.84;95349.81;5132798;27;20426;-55
2022/08/29 09:29:16;;;;;;;0.90;0.90;;;;;;;36.16;38.53;95339.31;5133081;27;20214;-55
2022/08/29 09:31:44;;;;;;;1.70;1.60;;;;;;;35.59;38.25;95317.84;5132736;27;20215;-55
2022/08/29 09:34:32;;;;;;;1.73;1.63;;;;;;;36.47;37.12;95309.31;5132323;27;20238;-55
2022/08/29 09:37:28;;;;;;;0.70;0.60;;;;;;;36.04;37.85;95328.97;5132486;27;20199;-55
2022/08/29 09:40:05;;;;;;;0.60;0.60;;;;;;;35.75;37.47;95269.41;5132722;27;20186;-55
2022/08/29 09:42:37;;;;;;;1.23;1.13;;;;;;;36.62;37.30;95323.50;5132506;27;20208;-55
2022/08/29 09:45:18;;;;;;;8.33;1.00;;;;;;;35.79;34.35;95309.50;5132793;27;20190;-56
2022/08/29 09:47:46;;;;;;;0.60;0.60;;;;;;;36.86;36.78;95330.31;5132638;27;20272;-56
2022/08/29 09:50:23;;;;;;;1.37;1.20;;;;;;;35.38;34.06;95326.59;5132416;27;20367;-56
2022/08/29 09:52:54;;;;;;;0.83;0.60;;;;;;;36.27;35.20;95320.47;5132558;27;20187;-56
2022/08/29 09:55:29;;;;;;;0.50;0.50;;;;;;;37.10;34.93;95320.53;5132597;27;20187;-56
2022/08/29 09:58:01;;;;;;;0.87;0.87;;;;;;;36.33;32.36;95317.19;5132540;27;20281;-55
2022/08/29 10:00:34;;;;;;;0.50;0.50;;;;;;;37.07;33.13;95304.84;5132487;28;20191;-56
2022/08/29 10:03:05;;;;;;;5.13;1.87;;;;;;;37.45;30.75;95305.66;5132630;28;20186;-57
2022/08/29 10:05:43;;;;;;;0.75;0.75;;;;;;;38.06;29.36;95298.94;5132985;27;20190;-56
2022/08/29 10:08:28;;;;;;;8.90;1.63;;;;;;;36.94;30.62;95262.59;5132705;28;20187;-57
2022/08/29 10:11:01;;;;;;;2.38;0.80;;;;;;;36.55;30.83;95298.84;5132330;28;20253;-56
2022/08/29 10:13:38;;;;;;;0.82;0.82;;;;;;;37.05;31.36;95298.97;5132685;28;20189;-57
2022/08/29 10:16:17;;;;;;;0.85;0.85;;;;;;;37.31;30.25;95295.03;5132704;28;20198;-56
2022/08/29 10:18:50;;;;;;;0.40;0.40;;;;;;;36.94;32.29;95295.75;5132314;28;20703;-57
2022/08/29 10:21:36;;;;;;;2.33;1.05;;;;;;;36.96;32.79;95300.84;5135653;27;20226;-57
2022/08/29 10:24:28;;;;;;;0.70;0.70;;;;;;;36.42;32.37;95289.72;5136775;27;20257;-57
2022/08/29 10:27:03;;;;;;;0.40;0.32;;;;;;;37.73;32.38;95279.06;5136421;27;20196;-56
2022/08/29 10:29:52;;;;;;;1.00;0.80;;;;;;;37.36;31.51;95286.19;5136573;27;20192;-56
2022/08/29 10:32:35;;;;;;;0.98;0.80;;;;;;;36.77;32.09;95285.97;5136255;27;20895;-57
2022/08/29 10:35:14;;;;;;;1.40;1.05;;;;;;;36.11;31.54;95265.31;5135992;27;20306;-57
2022/08/29 10:37:52;;;;;;;0.73;0.73;;;;;;;36.13;33.11;95270.41;5136568;27;20221;-56
2022/08/29 10:40:27;;;;;;;0.40;0.40;;;;;;;37.88;31.41;95262.78;5136169;27;20223;-56
2022/08/29 10:43:12;;;;;;;0.40;0.38;;;;;;;38.59;31.04;95244.44;5136108;27;20184;-57
2022/08/29 10:46:03;;;;;;;1.30;1.25;;;;;;;37.60;31.35;95256.19;5135641;27;20614;-57
2022/08/29 10:48:42;;;;;;;0.68;0.68;;;;;;;37.78;31.05;95252.81;5136329;27;20570;-56
2022/08/29 10:51:21;;;;;;;1.63;0.68;;;;;;;37.46;31.36;95253.91;5136469;27;20196;-56
2022/08/29 10:53:55;;;;;;;3.50;0.82;;;;;;;36.76;30.78;95257.56;5135857;27;20762;-57
2022/08/29 10:56:30;;;;;;;0.63;0.60;;;;;;;37.31;31.64;95244.47;5135801;27;20276;-56
2022/08/29 10:59:07;;;;;;;1.00;1.00;;;;;;;37.14;30.57;95245.81;5136051;27;20187;-56
2022/08/29 11:01:40;;;;;;;0.40;0.40;;;;;;;37.35;30.92;95243.13;5136018;27;20243;-56
2022/08/29 11:04:17;;;;;;;1.15;1.05;;;;;;;37.95;30.55;95232.13;5135770;27;20187;-57
2022/08/29 11:06:53;;;;;;;1.13;1.13;;;;;;;38.34;29.55;95230.75;5135497;27;20188;-57
2022/08/29 11:09:25;;;;;;;0.85;0.85;;;;;;;38.35;30.98;95235.84;5135799;27;20192;-56
2022/08/29 11:12:05;;;;;;;0.80;0.80;;;;;;;38.47;28.81;95223.13;5135475;27;20212;-57
2022/08/29 11:14:38;;;;;;;0.85;0.85;;;;;;;37.24;29.72;95234.41;5135398;27;20718;-57
2022/08/29 11:17:12;;;;;;;0.98;0.60;;;;;;;37.51;28.15;95228.44;5135727;27;20318;-57
2022/08/29 11:19:54;;;;;;;0.57;0.52;;;;;;;38.93;27.25;95226.97;5135473;27;20243;-56
2022/08/29 11:22:26;;;;;;;1.05;1.05;;;;;;;37.67;26.77;95222.00;5135725;27;20186;-57
2022/08/29 11:25:01;;;;;;;1.92;1.83;;;;;;;36.30;27.64;95216.72;5135469;27;20303;-56
2022/08/29 11:27:41;;;;;;;0.70;0.70;;;;;;;36.34;28.12;95214.59;5135102;27;20233;-57
2022/08/29 11:30:16;;;;;;;7.82;0.93;;;;;;;36.44;26.59;95218.25;5135185;27;20192;-57
2022/08/29 11:32:54;;;;;;;0.40;0.30;;;;;;;35.77;26.99;95218.13;5133786;27;20241;-57
2022/08/29 11:35:27;;;;;;;8.07;0.73;;;;;;;35.00;29.35;95210.53;5094162;28;20190;-57
2022/08/29 11:38:25;;;;;;;0.70;0.70;;;;;;;35.50;29.49;95207.34;5094200;28;20279;-57
2022/08/29 11:41:28;;;;;;;0.87;0.70;;;;;;;35.87;29.54;95202.50;5094196;28;20200;-56
2022/08/29 11:44:08;;;;;;;0.40;0.40;;;;;;;36.69;27.53;95174.94;5094174;28;20210;-57
2022/08/29 11:46:41;;;;;;;2.63;0.63;;;;;;;36.00;27.12;95195.09;5094121;28;20275;-59
2022/08/29 11:49:32;;;;;;;0.90;0.90;;;;;;;35.45;27.35;95196.06;5094058;28;20193;-59
2022/08/29 11:52:25;;;;;;;5.55;0.80;;;;;;;35.85;27.30;95204.94;5094126;28;20294;-59
2022/08/29 11:55:12;;;;;;;0.57;0.57;;;;;;;36.52;27.24;95201.09;5092947;28;20274;-59